createdAt,value
2023-09-06T00:01:08.457Z,4.70
2023-09-06T00:03:38.025Z,4.90
2023-09-06T00:06:05.426Z,4.30
2023-09-06T00:08:35.100Z,4.50
2023-09-06T00:11:05.321Z,4.80
2023-09-06T00:13:33.156Z,4.10
2023-09-06T00:16:04.297Z,4.70
2023-09-06T00:18:31.914Z,4.50
2023-09-06T00:20:59.044Z,4.80
2023-09-06T00:23:26.187Z,4.60
2023-09-06T00:25:54.684Z,4.50
2023-09-06T00:28:21.517Z,4.30
2023-09-06T00:30:48.463Z,4.50
2023-09-06T00:33:15.397Z,4.20
2023-09-06T00:35:42.690Z,4.60
2023-09-06T00:38:09.591Z,4.60
2023-09-06T00:40:38.228Z,4.40
2023-09-06T00:43:08.303Z,4.30
2023-09-06T00:45:40.268Z,4.70
2023-09-06T00:48:07.403Z,4.40
2023-09-06T00:50:35.282Z,4.20
2023-09-06T00:53:02.219Z,4.20
2023-09-06T00:55:29.369Z,4.40
2023-09-06T00:57:56.338Z,4.30
2023-09-06T01:00:26.153Z,4.30
2023-09-06T01:02:53.017Z,4.30
2023-09-06T01:05:20.442Z,4.30
2023-09-06T01:07:50.453Z,4.30
2023-09-06T01:10:17.283Z,4.30
2023-09-06T01:12:44.180Z,4.40
2023-09-06T01:15:14.407Z,4.50
2023-09-06T01:17:44.824Z,4.30
2023-09-06T01:20:18.779Z,4.60
2023-09-06T01:22:52.765Z,4.50
2023-09-06T01:25:19.493Z,4.60
2023-09-06T01:27:46.468Z,4.20
2023-09-06T01:30:13.649Z,4.10
2023-09-06T01:32:41.533Z,4.40
2023-09-06T01:35:11.204Z,4.40
2023-09-06T01:37:38.685Z,4.10
2023-09-06T01:40:32.849Z,4.80
2023-09-06T01:42:59.944Z,4.30
2023-09-06T01:45:28.168Z,3.90
2023-09-06T01:47:55.845Z,4.40
2023-09-06T01:50:22.778Z,5.10
2023-09-06T01:52:49.655Z,4.30
2023-09-06T01:55:16.510Z,4.30
2023-09-06T01:57:43.633Z,4.50
2023-09-06T02:00:24.416Z,4.00
2023-09-06T02:02:52.521Z,4.60
2023-09-06T02:05:19.604Z,5.10
2023-09-06T02:07:47.683Z,5.00
2023-09-06T02:10:15.296Z,4.30
2023-09-06T02:12:42.435Z,5.10
2023-09-06T02:15:14.345Z,5.10
2023-09-06T02:17:44.990Z,5.10
2023-09-06T02:20:18.108Z,5.40
2023-09-06T02:22:47.547Z,5.50
2023-09-06T02:25:15.628Z,5.20
2023-09-06T02:27:42.727Z,5.50
2023-09-06T02:30:10.245Z,5.90
2023-09-06T02:32:37.730Z,6.00
2023-09-06T02:35:07.389Z,6.20
2023-09-06T02:37:34.995Z,6.50
2023-09-06T02:40:03.746Z,6.00
2023-09-06T02:42:30.803Z,6.40
2023-09-06T02:44:57.645Z,6.00
2023-09-06T02:47:29.453Z,5.90
2023-09-06T02:49:56.788Z,6.10
2023-09-06T02:52:29.267Z,5.90
2023-09-06T02:54:58.469Z,6.70
2023-09-06T02:57:26.808Z,5.80
2023-09-06T02:59:54.680Z,6.00
2023-09-06T03:02:22.706Z,6.30
2023-09-06T03:04:58.404Z,5.70
2023-09-06T03:07:25.646Z,6.20
2023-09-06T03:09:52.764Z,6.30
2023-09-06T03:12:20.052Z,6.80
2023-09-06T03:14:50.502Z,6.00
2023-09-06T03:17:23.299Z,5.60
2023-09-06T03:20:00.355Z,5.80
2023-09-06T03:22:28.622Z,6.70
2023-09-06T03:24:56.179Z,11.50
2023-09-06T03:27:23.016Z,13.30
2023-09-06T03:29:52.075Z,15.60
2023-09-06T03:32:20.900Z,18.60
2023-09-06T03:34:48.277Z,19.20
2023-09-06T03:37:19.296Z,18.70
2023-09-06T03:39:48.492Z,17.30
2023-09-06T03:42:16.403Z,12.50
2023-09-06T03:44:47.298Z,9.80
2023-09-06T03:47:15.717Z,8.30
2023-09-06T03:49:43.945Z,7.50
2023-09-06T03:52:17.244Z,7.00
2023-09-06T03:54:44.110Z,6.60
2023-09-06T03:57:13.799Z,6.80
2023-09-06T03:59:41.658Z,6.20
2023-09-06T04:02:14.048Z,6.10
2023-09-06T04:04:42.561Z,5.80
2023-09-06T04:07:09.380Z,5.80
2023-09-06T04:09:38.311Z,5.80
2023-09-06T04:12:09.050Z,6.20
2023-09-06T04:14:36.718Z,5.30
2023-09-06T04:17:07.579Z,5.40
2023-09-06T04:19:35.661Z,6.20
2023-09-06T04:22:02.909Z,5.50
2023-09-06T04:24:35.989Z,5.60
2023-09-06T04:27:05.412Z,5.10
2023-09-06T04:29:32.378Z,5.50
2023-09-06T04:31:59.568Z,5.60
2023-09-06T04:34:27.462Z,5.60
2023-09-06T04:36:55.426Z,5.80
2023-09-06T04:39:25.137Z,5.70
2023-09-06T04:41:51.975Z,6.00
2023-09-06T04:44:18.956Z,6.10
2023-09-06T04:46:47.742Z,6.20
2023-09-06T04:49:15.499Z,5.80
2023-09-06T04:51:42.729Z,5.90
2023-09-06T04:54:10.534Z,5.90
2023-09-06T04:56:37.405Z,5.60
2023-09-06T04:59:04.782Z,6.30
2023-09-06T05:01:31.630Z,5.80
2023-09-06T05:03:58.602Z,5.70
2023-09-06T05:06:26.759Z,5.60
2023-09-06T05:08:54.405Z,5.80
2023-09-06T05:11:23.301Z,5.40
2023-09-06T05:13:51.999Z,5.50
2023-09-06T05:16:19.099Z,5.00
2023-09-06T05:18:47.892Z,5.60
2023-09-06T05:21:18.050Z,5.30
2023-09-06T05:23:44.803Z,5.50
2023-09-06T05:26:11.937Z,5.70
2023-09-06T05:28:43.382Z,5.70
2023-09-06T05:31:10.617Z,5.20
2023-09-06T05:33:39.846Z,5.20
2023-09-06T05:36:09.641Z,5.70
2023-09-06T05:38:37.303Z,6.50
2023-09-06T05:41:04.601Z,6.10
2023-09-06T05:43:35.262Z,6.40
2023-09-06T05:46:02.232Z,6.20
2023-09-06T05:48:29.835Z,6.50
2023-09-06T05:50:57.368Z,7.20
2023-09-06T05:53:25.350Z,6.70
2023-09-06T05:55:54.382Z,6.50
2023-09-06T05:58:21.672Z,5.30
2023-09-06T06:00:50.460Z,6.40
2023-09-06T06:03:19.897Z,5.80
2023-09-06T06:05:46.804Z,6.50
2023-09-06T06:08:13.956Z,6.50
2023-09-06T06:10:41.449Z,6.10
2023-09-06T06:13:09.697Z,6.30
2023-09-06T06:15:36.847Z,6.80
2023-09-06T06:18:05.981Z,6.30
2023-09-06T06:20:43.534Z,6.00
2023-09-06T06:23:12.041Z,5.60
2023-09-06T06:25:39.363Z,5.40
2023-09-06T06:28:07.173Z,5.00
2023-09-06T06:30:34.187Z,5.10
2023-09-06T06:33:01.273Z,5.10
2023-09-06T06:35:29.727Z,5.00
2023-09-06T06:37:57.898Z,5.10
2023-09-06T06:40:27.060Z,5.00
2023-09-06T06:42:54.039Z,4.80
2023-09-06T06:45:21.065Z,4.80
2023-09-06T06:47:48.242Z,4.40
2023-09-06T06:50:17.321Z,4.10
2023-09-06T06:52:47.285Z,4.20
2023-09-06T06:55:16.424Z,4.20
2023-09-06T06:57:43.369Z,4.40
2023-09-06T07:00:12.788Z,3.90
2023-09-06T07:02:39.912Z,4.50
2023-09-06T07:05:08.721Z,3.90
2023-09-06T07:07:35.875Z,3.90
2023-09-06T07:10:02.886Z,4.10
2023-09-06T07:12:30.088Z,4.50
2023-09-06T07:14:57.056Z,4.50
2023-09-06T07:17:24.012Z,4.20
2023-09-06T07:19:51.568Z,4.70
2023-09-06T07:22:20.488Z,4.60
2023-09-06T07:24:47.738Z,6.50
2023-09-06T07:27:14.992Z,5.50
2023-09-06T07:29:46.242Z,6.90
2023-09-06T07:32:13.716Z,5.60
2023-09-06T07:34:44.945Z,5.70
2023-09-06T07:37:12.361Z,5.20
2023-09-06T07:39:40.073Z,5.50
2023-09-06T07:42:08.134Z,6.60
2023-09-06T07:44:36.925Z,6.20
2023-09-06T07:47:05.356Z,4.90
2023-09-06T07:49:37.530Z,5.20
2023-09-06T07:52:05.962Z,4.50
2023-09-06T07:54:34.261Z,4.30
2023-09-06T07:57:01.371Z,4.10
2023-09-06T07:59:28.499Z,5.70
2023-09-06T08:01:55.563Z,4.80
2023-09-06T08:04:22.921Z,5.00
2023-09-06T08:06:50.360Z,4.80
2023-09-06T08:09:17.731Z,5.30
2023-09-06T08:11:44.604Z,4.60
2023-09-06T08:14:11.835Z,4.70
2023-09-06T08:16:38.627Z,4.70
2023-09-06T08:19:05.570Z,4.00
2023-09-06T08:21:33.003Z,4.10
2023-09-06T08:24:02.818Z,4.10
2023-09-06T08:26:30.039Z,3.90
2023-09-06T08:28:58.116Z,3.50
2023-09-06T08:31:25.020Z,4.80
2023-09-06T08:33:52.183Z,3.80
2023-09-06T08:36:21.518Z,4.30
2023-09-06T08:38:48.351Z,3.90
2023-09-06T08:41:15.241Z,4.00
2023-09-06T08:43:43.191Z,3.30
2023-09-06T08:46:28.267Z,3.80
2023-09-06T08:48:56.821Z,3.90
2023-09-06T08:51:24.163Z,3.60
2023-09-06T08:53:51.123Z,3.50
2023-09-06T08:56:17.863Z,3.60
2023-09-06T08:58:44.906Z,3.40
2023-09-06T09:01:11.812Z,3.40
2023-09-06T09:03:39.742Z,4.00
2023-09-06T09:06:09.940Z,4.00
2023-09-06T09:08:36.974Z,4.10
2023-09-06T09:11:19.310Z,3.90
2023-09-06T09:13:46.452Z,3.60
2023-09-06T09:16:15.112Z,3.70
2023-09-06T09:18:43.559Z,3.90
2023-09-06T09:21:14.049Z,3.60
2023-09-06T09:23:48.130Z,3.20
2023-09-06T09:26:17.116Z,4.00
2023-09-06T09:28:44.013Z,3.40
2023-09-06T09:31:14.958Z,3.50
2023-09-06T09:33:50.465Z,4.60
2023-09-06T09:36:18.684Z,3.90
2023-09-06T09:38:50.576Z,3.70
2023-09-06T09:41:17.474Z,3.90
2023-09-06T09:43:44.271Z,3.80
2023-09-06T09:46:11.407Z,3.40
2023-09-06T09:48:41.197Z,3.70
2023-09-06T09:51:11.558Z,3.40
2023-09-06T09:53:38.669Z,3.40
2023-09-06T09:56:07.091Z,3.70
2023-09-06T09:58:36.897Z,3.70
2023-09-06T10:01:06.846Z,3.30
2023-09-06T10:03:37.093Z,3.40
2023-09-06T10:06:04.520Z,3.00
2023-09-06T10:08:33.077Z,3.10
2023-09-06T10:10:59.932Z,3.50
2023-09-06T10:13:28.245Z,3.40
2023-09-06T10:15:57.476Z,3.60
2023-09-06T10:18:29.309Z,3.40
2023-09-06T10:20:57.529Z,4.10
2023-09-06T10:23:24.670Z,3.30
2023-09-06T10:25:55.202Z,4.90
2023-09-06T10:28:23.991Z,3.40
2023-09-06T10:30:55.602Z,3.70
2023-09-06T10:33:34.968Z,3.70
2023-09-06T10:36:15.855Z,3.60
2023-09-06T10:38:52.375Z,3.90
2023-09-06T10:41:20.355Z,3.30
2023-09-06T10:44:01.891Z,3.30
2023-09-06T10:46:33.065Z,4.00
2023-09-06T10:49:22.270Z,3.40
2023-09-06T10:51:55.855Z,3.30
2023-09-06T10:54:36.391Z,3.70
2023-09-06T10:57:07.711Z,3.30
2023-09-06T10:59:45.512Z,3.70
2023-09-06T11:02:22.998Z,3.60
2023-09-06T11:05:06.629Z,2.70
2023-09-06T11:07:49.125Z,2.90
2023-09-06T11:10:23.313Z,2.90
2023-09-06T11:12:50.192Z,3.30
2023-09-06T11:15:17.592Z,3.10
2023-09-06T11:17:47.473Z,3.00
2023-09-06T11:20:17.240Z,3.30
2023-09-06T11:22:52.151Z,2.80
2023-09-06T11:25:20.437Z,3.50
2023-09-06T11:27:48.289Z,3.00
2023-09-06T11:30:24.937Z,2.90
2023-09-06T11:32:52.879Z,3.20
2023-09-06T11:35:23.450Z,3.00
2023-09-06T11:37:52.226Z,3.00
2023-09-06T11:40:21.866Z,2.80
2023-09-06T11:42:54.513Z,2.90
2023-09-06T11:45:22.678Z,3.00
2023-09-06T11:47:50.047Z,2.90
2023-09-06T11:50:20.654Z,3.10
2023-09-06T11:52:58.550Z,3.10
2023-09-06T11:55:28.180Z,2.90
2023-09-06T11:57:57.798Z,3.10
2023-09-06T12:00:36.879Z,2.80
2023-09-06T12:03:08.832Z,3.10
2023-09-06T12:05:49.110Z,2.70
2023-09-06T12:08:20.605Z,3.00
2023-09-06T12:10:53.248Z,2.80
2023-09-06T12:13:38.017Z,2.90
2023-09-06T12:16:09.174Z,2.90
2023-09-06T12:18:37.259Z,3.00
2023-09-06T12:21:05.746Z,3.00
2023-09-06T12:23:35.033Z,2.90
2023-09-06T12:26:04.401Z,2.90
2023-09-06T12:28:32.601Z,3.00
2023-09-06T12:31:07.833Z,2.90
2023-09-06T12:33:47.575Z,2.70
2023-09-06T12:36:17.682Z,3.00
2023-09-06T12:38:45.059Z,2.80
2023-09-06T12:41:13.006Z,2.90
2023-09-06T12:43:39.685Z,2.60
2023-09-06T12:46:07.532Z,2.70
2023-09-06T12:48:35.753Z,2.50
2023-09-06T12:51:05.728Z,2.60
2023-09-06T12:53:33.307Z,2.80
2023-09-06T12:56:00.558Z,2.50
2023-09-06T12:58:28.293Z,2.60
2023-09-06T13:00:56.776Z,2.60
2023-09-06T13:03:23.933Z,2.80
2023-09-06T13:05:51.120Z,2.70
2023-09-06T13:21:34.900Z,2.80
2023-09-06T13:24:01.947Z,2.70
2023-09-06T13:26:29.082Z,2.40
2023-09-06T13:28:56.527Z,2.30
2023-09-06T13:31:24.232Z,2.60
2023-09-06T13:33:51.271Z,4.00
2023-09-06T13:36:19.221Z,2.30
2023-09-06T13:42:55.373Z,3.10
2023-09-06T13:45:22.708Z,2.40
2023-09-06T13:47:50.065Z,2.50
2023-09-06T13:50:17.983Z,2.40
2023-09-06T13:52:44.811Z,2.70
2023-09-06T13:55:14.160Z,3.10
2023-09-06T13:57:41.258Z,3.50
2023-09-06T14:00:12.095Z,2.70
2023-09-06T14:02:40.820Z,2.80
2023-09-06T14:05:08.905Z,3.00
2023-09-06T14:07:35.865Z,2.60
2023-09-06T14:10:04.691Z,2.50
2023-09-06T14:12:32.100Z,2.70
2023-09-06T14:14:59.606Z,2.60
2023-09-06T14:17:26.604Z,2.50
2023-09-06T14:19:53.549Z,2.40
2023-09-06T14:22:20.713Z,2.20
2023-09-06T14:24:47.810Z,2.80
2023-09-06T14:27:16.890Z,2.20
2023-09-06T14:29:45.882Z,2.40
2023-09-06T14:32:12.822Z,2.30
2023-09-06T14:34:40.003Z,2.50
2023-09-06T14:37:07.039Z,2.40
2023-09-06T14:39:34.376Z,2.50
2023-09-06T14:42:01.244Z,2.20
2023-09-06T14:44:29.121Z,2.50
2023-09-06T14:46:56.274Z,2.30
2023-09-06T14:49:23.490Z,2.30
2023-09-06T14:51:50.537Z,2.20
2023-09-06T14:54:17.611Z,3.00
2023-09-06T14:56:44.621Z,2.80
2023-09-06T14:59:11.373Z,2.20
2023-09-06T15:01:39.375Z,2.40
2023-09-06T15:04:06.907Z,2.40
2023-09-06T15:06:48.012Z,2.60
2023-09-06T15:09:19.914Z,2.70
2023-09-06T15:11:47.279Z,2.80
2023-09-06T15:14:14.641Z,2.20
2023-09-06T15:16:41.607Z,2.20
2023-09-06T15:19:08.494Z,2.10
2023-09-06T15:21:35.736Z,2.10
2023-09-06T15:24:02.985Z,2.40
2023-09-06T15:26:30.091Z,2.50
2023-09-06T15:28:56.841Z,2.30
2023-09-06T15:31:23.695Z,2.40
2023-09-06T15:33:50.507Z,2.50
2023-09-06T15:36:17.615Z,2.50
2023-09-06T15:38:44.743Z,2.50
2023-09-06T15:41:17.959Z,2.60
2023-09-06T15:43:45.657Z,2.70
2023-09-06T15:46:12.655Z,2.80
2023-09-06T15:48:39.482Z,2.50
2023-09-06T15:51:06.645Z,2.30
2023-09-06T15:53:33.697Z,2.70
2023-09-06T15:56:00.692Z,2.40
2023-09-06T15:58:28.207Z,2.60
2023-09-06T16:00:55.703Z,2.50
2023-09-06T16:03:22.555Z,2.40
2023-09-06T16:05:49.575Z,2.50
2023-09-06T16:08:16.690Z,2.60
2023-09-06T16:10:43.483Z,2.40
2023-09-06T16:13:10.447Z,2.40
2023-09-06T16:15:37.289Z,2.10
2023-09-06T16:18:05.436Z,2.60
2023-09-06T16:20:32.500Z,2.30
2023-09-06T16:23:00.050Z,2.40
2023-09-06T16:25:26.900Z,2.50
2023-09-06T16:27:53.742Z,2.60
2023-09-06T16:30:21.593Z,2.50
2023-09-06T16:32:49.557Z,2.60
2023-09-06T16:35:16.637Z,2.60
2023-09-06T16:37:46.941Z,2.40
2023-09-06T16:40:14.737Z,2.40
2023-09-06T16:42:42.348Z,2.40
2023-09-06T16:45:09.716Z,2.80
2023-09-06T16:47:36.622Z,2.70
2023-09-06T16:50:03.827Z,2.30
2023-09-06T16:52:30.769Z,2.40
2023-09-06T16:55:00.260Z,2.60
2023-09-06T16:57:27.349Z,2.70
2023-09-06T16:59:54.262Z,2.50
2023-09-06T17:02:21.447Z,2.50
2023-09-06T17:04:48.865Z,2.50
2023-09-06T17:07:16.052Z,2.80
2023-09-06T17:09:43.028Z,2.60
2023-09-06T17:12:09.918Z,2.70
2023-09-06T17:14:36.751Z,2.60
2023-09-06T17:17:04.182Z,2.70
2023-09-06T17:19:31.273Z,2.80
2023-09-06T17:21:58.514Z,2.70
2023-09-06T17:24:25.893Z,2.70
2023-09-06T17:26:54.332Z,2.70
2023-09-06T17:29:21.214Z,2.80
2023-09-06T17:31:48.389Z,3.00
2023-09-06T17:34:15.468Z,2.80
2023-09-06T17:36:42.793Z,3.00
2023-09-06T17:39:10.391Z,3.10
2023-09-06T17:41:38.582Z,2.90
2023-09-06T17:44:06.678Z,3.20
2023-09-06T17:46:34.221Z,3.00
2023-09-06T17:49:02.497Z,2.80
2023-09-06T17:51:31.307Z,2.80
2023-09-06T17:54:00.057Z,3.10
2023-09-06T17:56:27.701Z,3.20
2023-09-06T17:58:54.901Z,2.50
2023-09-06T18:01:22.785Z,3.00
2023-09-06T18:11:52.704Z,3.20
2023-09-06T18:14:19.632Z,3.50
2023-09-06T18:16:48.284Z,3.30
2023-09-06T18:19:15.492Z,3.70
2023-09-06T18:21:42.457Z,4.50
2023-09-06T18:24:14.791Z,4.90
2023-09-06T18:26:48.619Z,5.40
2023-09-06T18:29:21.269Z,5.60
2023-09-06T18:31:48.546Z,6.40
2023-09-06T18:34:15.464Z,5.90
2023-09-06T18:36:42.632Z,6.20
2023-09-06T18:39:09.564Z,6.40
2023-09-06T18:41:37.530Z,6.20
2023-09-06T18:44:06.829Z,5.80
2023-09-06T18:46:33.950Z,5.90
2023-09-06T18:49:05.545Z,6.70
2023-09-06T18:51:35.544Z,6.30
2023-09-06T18:54:02.591Z,6.60
2023-09-06T18:56:34.969Z,6.40
2023-09-06T18:59:01.914Z,7.30
2023-09-06T19:01:29.483Z,6.80
2023-09-06T19:03:56.469Z,7.70
2023-09-06T19:06:25.101Z,8.50
2023-09-06T19:08:51.947Z,8.50
2023-09-06T19:11:18.789Z,9.10
2023-09-06T19:13:45.945Z,9.60
2023-09-06T19:16:12.904Z,10.40
2023-09-06T19:18:40.150Z,10.20
2023-09-06T19:21:07.446Z,9.20
2023-09-06T19:23:34.474Z,9.60
2023-09-06T19:26:05.586Z,8.80
2023-09-06T19:28:33.235Z,10.30
2023-09-06T19:31:01.034Z,10.00
2023-09-06T19:33:28.886Z,9.30
2023-09-06T19:35:56.366Z,7.60
2023-09-06T19:38:25.617Z,6.80
2023-09-06T19:40:54.036Z,6.80
2023-09-06T19:43:20.972Z,6.30
2023-09-06T19:45:56.188Z,6.50
2023-09-06T19:48:23.192Z,6.10
2023-09-06T19:50:50.429Z,5.70
2023-09-06T19:53:17.378Z,5.70
2023-09-06T19:55:44.374Z,5.50
2023-09-06T19:58:12.162Z,5.60
2023-09-06T20:00:38.977Z,5.40
2023-09-06T20:03:06.305Z,5.10
2023-09-06T20:05:34.236Z,4.70
2023-09-06T20:08:01.303Z,4.90
2023-09-06T20:10:28.393Z,4.60
2023-09-06T20:12:55.440Z,5.10
2023-09-06T20:15:22.188Z,4.80
2023-09-06T20:17:49.397Z,5.30
2023-09-06T20:20:17.251Z,4.60
2023-09-06T20:22:44.038Z,4.50
2023-09-06T20:25:11.845Z,4.80
2023-09-06T20:27:38.951Z,4.50
2023-09-06T20:30:06.873Z,4.90
2023-09-06T20:32:34.062Z,5.10
2023-09-06T20:35:01.018Z,5.20
2023-09-06T20:37:27.877Z,5.00
2023-09-06T20:39:54.712Z,5.20
2023-09-06T20:42:21.482Z,5.40
2023-09-06T20:44:48.286Z,4.60
2023-09-06T20:47:15.285Z,4.60
2023-09-06T20:49:44.223Z,4.90
2023-09-06T20:52:11.134Z,4.70
2023-09-06T20:54:38.046Z,5.00
2023-09-06T20:57:05.258Z,4.50
2023-09-06T20:59:31.894Z,4.50
2023-09-06T21:01:58.927Z,4.60
2023-09-06T21:04:26.513Z,4.80
2023-09-06T21:06:53.345Z,4.50
2023-09-06T21:09:20.197Z,4.50
2023-09-06T21:11:47.032Z,4.70
2023-09-06T21:14:13.905Z,4.30
2023-09-06T21:16:40.715Z,4.50
2023-09-06T21:19:07.905Z,4.00
2023-09-06T21:21:34.708Z,4.50
2023-09-06T21:24:02.068Z,4.50
2023-09-06T21:26:29.050Z,4.50
2023-09-06T21:28:56.667Z,4.00
2023-09-06T21:31:23.656Z,4.40
2023-09-06T21:33:50.724Z,4.60
2023-09-06T21:36:17.639Z,4.30
2023-09-06T21:38:44.547Z,4.40
2023-09-06T21:41:11.307Z,4.40
2023-09-06T21:43:38.029Z,4.10
2023-09-06T21:46:05.000Z,4.40
2023-09-06T21:48:32.765Z,4.60
2023-09-06T21:51:16.880Z,4.10
2023-09-06T21:53:43.742Z,4.40
2023-09-06T21:56:11.831Z,4.30
2023-09-06T21:58:39.363Z,4.20
2023-09-06T22:01:19.028Z,4.20
2023-09-06T22:04:05.194Z,3.90
2023-09-06T22:06:53.356Z,4.70
2023-09-06T22:09:41.093Z,3.90
2023-09-06T22:12:29.230Z,3.80
2023-09-06T22:14:56.156Z,4.40
2023-09-06T22:17:23.082Z,3.80
2023-09-06T22:19:50.048Z,3.90
2023-09-06T22:22:17.057Z,3.80
2023-09-06T22:24:44.172Z,3.80
2023-09-06T22:27:11.595Z,3.90
2023-09-06T22:29:38.747Z,4.30
2023-09-06T22:32:05.943Z,3.70
2023-09-06T22:34:35.756Z,3.80
2023-09-06T22:37:03.902Z,4.00
2023-09-06T22:39:31.363Z,3.40
2023-09-06T22:41:58.276Z,4.20
2023-09-06T22:44:25.124Z,3.90
2023-09-06T22:46:52.412Z,3.30
2023-09-06T22:49:19.446Z,3.80
2023-09-06T22:51:46.358Z,3.80
2023-09-06T22:54:13.416Z,3.90
2023-09-06T22:56:40.268Z,3.70
2023-09-06T22:59:07.200Z,3.60
2023-09-06T23:01:34.066Z,4.00
2023-09-06T23:04:01.127Z,4.00
2023-09-06T23:06:28.689Z,3.80
2023-09-06T23:08:59.083Z,3.70
2023-09-06T23:11:28.375Z,3.50
2023-09-06T23:13:57.176Z,3.90
2023-09-06T23:16:24.014Z,3.30
2023-09-06T23:18:51.481Z,3.80
2023-09-06T23:21:21.582Z,3.30
2023-09-06T23:23:49.652Z,3.50
2023-09-06T23:26:20.908Z,4.00
2023-09-06T23:28:49.276Z,3.70
2023-09-06T23:31:17.615Z,3.80
2023-09-06T23:33:48.730Z,4.00
2023-09-06T23:36:18.209Z,3.30
2023-09-06T23:38:46.324Z,3.30
2023-09-06T23:41:18.137Z,3.70
2023-09-06T23:43:45.110Z,3.70
2023-09-06T23:46:12.192Z,3.60
2023-09-06T23:48:39.175Z,3.50
2023-09-06T23:51:06.011Z,3.80
2023-09-06T23:53:32.971Z,3.60
2023-09-06T23:56:03.193Z,3.70
2023-09-06T23:58:30.439Z,3.70
